sensor_id;sensor_type;location;lat;lon;timestamp;P1;durP1;ratioP1;P2;durP2;ratioP2
28323;SDS011;15583;54.078;12.106;2023-03-01T00:01:49;7.00;;;3.55;;
28323;SDS011;15583;54.078;12.106;2023-03-01T00:04:15;10.40;;;4.07;;
28323;SDS011;15583;54.078;12.106;2023-03-01T00:06:42;8.95;;;4.65;;
28323;SDS011;15583;54.078;12.106;2023-03-01T00:09:15;9.45;;;4.45;;
28323;SDS011;15583;54.078;12.106;2023-03-01T00:11:41;7.93;;;3.88;;
28323;SDS011;15583;54.078;12.106;2023-03-01T00:14:07;7.82;;;4.35;;
28323;SDS011;15583;54.078;12.106;2023-03-01T00:16:35;7.90;;;4.40;;
28323;SDS011;15583;54.078;12.106;2023-03-01T00:19:03;7.18;;;4.03;;
28323;SDS011;15583;54.078;12.106;2023-03-01T00:21:29;5.68;;;4.40;;
28323;SDS011;15583;54.078;12.106;2023-03-01T00:23:55;9.85;;;4.40;;
28323;SDS011;15583;54.078;12.106;2023-03-01T00:26:24;4.95;;;3.53;;
28323;SDS011;15583;54.078;12.106;2023-03-01T00:28:50;4.55;;;3.22;;
28323;SDS011;15583;54.078;12.106;2023-03-01T00:31:20;6.53;;;3.50;;
28323;SDS011;15583;54.078;12.106;2023-03-01T00:33:46;4.55;;;3.03;;
28323;SDS011;15583;54.078;12.106;2023-03-01T00:36:13;7.32;;;3.38;;
28323;SDS011;15583;54.078;12.106;2023-03-01T00:38:41;5.78;;;3.70;;
28323;SDS011;15583;54.078;12.106;2023-03-01T00:41:08;5.78;;;3.63;;
28323;SDS011;15583;54.078;12.106;2023-03-01T00:43:34;6.25;;;3.30;;
28323;SDS011;15583;54.078;12.106;2023-03-01T00:46:02;6.53;;;3.88;;
28323;SDS011;15583;54.078;12.106;2023-03-01T00:48:28;5.93;;;3.50;;
28323;SDS011;15583;54.078;12.106;2023-03-01T00:50:54;5.47;;;3.83;;
28323;SDS011;15583;54.078;12.106;2023-03-01T00:53:21;7.60;;;3.83;;
28323;SDS011;15583;54.078;12.106;2023-03-01T00:55:47;4.60;;;3.45;;
28323;SDS011;15583;54.078;12.106;2023-03-01T00:58:13;6.55;;;3.67;;
28323;SDS011;15583;54.078;12.106;2023-03-01T01:00:38;6.72;;;4.03;;
28323;SDS011;15583;54.078;12.106;2023-03-01T01:03:04;6.78;;;4.30;;
28323;SDS011;15583;54.078;12.106;2023-03-01T01:05:30;8.07;;;4.05;;
28323;SDS011;15583;54.078;12.106;2023-03-01T01:07:56;7.38;;;3.70;;
28323;SDS011;15583;54.078;12.106;2023-03-01T01:10:22;5.80;;;3.65;;
28323;SDS011;15583;54.078;12.106;2023-03-01T01:12:48;6.03;;;3.60;;
28323;SDS011;15583;54.078;12.106;2023-03-01T01:15:14;6.72;;;4.13;;
28323;SDS011;15583;54.078;12.106;2023-03-01T01:17:41;4.97;;;3.22;;
28323;SDS011;15583;54.078;12.106;2023-03-01T01:20:08;7.90;;;3.90;;
28323;SDS011;15583;54.078;12.106;2023-03-01T01:22:34;7.63;;;3.63;;
28323;SDS011;15583;54.078;12.106;2023-03-01T01:25:00;5.88;;;3.28;;
28323;SDS011;15583;54.078;12.106;2023-03-01T01:27:26;5.57;;;3.40;;
28323;SDS011;15583;54.078;12.106;2023-03-01T01:29:54;6.53;;;3.60;;
28323;SDS011;15583;54.078;12.106;2023-03-01T01:32:20;4.93;;;3.42;;
28323;SDS011;15583;54.078;12.106;2023-03-01T01:34:46;4.63;;;3.20;;
28323;SDS011;15583;54.078;12.106;2023-03-01T01:37:12;5.50;;;3.45;;
28323;SDS011;15583;54.078;12.106;2023-03-01T01:39:38;5.90;;;3.45;;
28323;SDS011;15583;54.078;12.106;2023-03-01T01:42:04;6.53;;;3.63;;
28323;SDS011;15583;54.078;12.106;2023-03-01T01:44:30;10.18;;;4.25;;
28323;SDS011;15583;54.078;12.106;2023-03-01T01:46:57;5.00;;;3.60;;
28323;SDS011;15583;54.078;12.106;2023-03-01T01:49:26;6.72;;;3.83;;
28323;SDS011;15583;54.078;12.106;2023-03-01T01:51:56;4.60;;;3.47;;
28323;SDS011;15583;54.078;12.106;2023-03-01T01:54:24;4.90;;;3.25;;
28323;SDS011;15583;54.078;12.106;2023-03-01T01:56:53;5.70;;;3.38;;
28323;SDS011;15583;54.078;12.106;2023-03-01T01:59:20;5.68;;;3.38;;
28323;SDS011;15583;54.078;12.106;2023-03-01T02:01:49;7.32;;;3.70;;
28323;SDS011;15583;54.078;12.106;2023-03-01T02:04:15;5.38;;;3.83;;
28323;SDS011;15583;54.078;12.106;2023-03-01T02:06:45;5.57;;;3.47;;
28323;SDS011;15583;54.078;12.106;2023-03-01T02:09:13;4.60;;;3.60;;
28323;SDS011;15583;54.078;12.106;2023-03-01T02:11:39;6.82;;;3.40;;
28323;SDS011;15583;54.078;12.106;2023-03-01T02:14:05;9.45;;;3.92;;
28323;SDS011;15583;54.078;12.106;2023-03-01T02:16:31;6.32;;;3.55;;
28323;SDS011;15583;54.078;12.106;2023-03-01T02:18:58;7.40;;;4.00;;
28323;SDS011;15583;54.078;12.106;2023-03-01T02:21:34;5.55;;;3.45;;
28323;SDS011;15583;54.078;12.106;2023-03-01T02:24:32;5.80;;;3.63;;
28323;SDS011;15583;54.078;12.106;2023-03-01T02:26:50;5.63;;;3.63;;
28323;SDS011;15583;54.078;12.106;2023-03-01T02:29:17;7.88;;;3.50;;
28323;SDS011;15583;54.078;12.106;2023-03-01T02:31:43;5.82;;;3.80;;
28323;SDS011;15583;54.078;12.106;2023-03-01T02:34:13;5.78;;;3.53;;
28323;SDS011;15583;54.078;12.106;2023-03-01T02:36:47;4.60;;;3.50;;
28323;SDS011;15583;54.078;12.106;2023-03-01T02:39:14;5.50;;;3.40;;
28323;SDS011;15583;54.078;12.106;2023-03-01T02:41:45;6.28;;;3.80;;
28323;SDS011;15583;54.078;12.106;2023-03-01T02:44:12;5.88;;;3.38;;
28323;SDS011;15583;54.078;12.106;2023-03-01T02:46:52;4.82;;;3.30;;
28323;SDS011;15583;54.078;12.106;2023-03-01T02:49:26;5.35;;;3.95;;
28323;SDS011;15583;54.078;12.106;2023-03-01T02:57:03;6.35;;;3.80;;
28323;SDS011;15583;54.078;12.106;2023-03-01T02:59:30;6.43;;;3.90;;
28323;SDS011;15583;54.078;12.106;2023-03-01T03:01:57;6.38;;;3.72;;
28323;SDS011;15583;54.078;12.106;2023-03-01T03:04:23;5.28;;;3.63;;
28323;SDS011;15583;54.078;12.106;2023-03-01T03:06:49;5.57;;;3.90;;
28323;SDS011;15583;54.078;12.106;2023-03-01T03:09:16;5.78;;;4.05;;
28323;SDS011;15583;54.078;12.106;2023-03-01T03:11:43;7.10;;;4.22;;
28323;SDS011;15583;54.078;12.106;2023-03-01T03:14:10;6.90;;;4.30;;
28323;SDS011;15583;54.078;12.106;2023-03-01T03:16:47;8.77;;;4.63;;
28323;SDS011;15583;54.078;12.106;2023-03-01T03:19:14;7.70;;;4.25;;
28323;SDS011;15583;54.078;12.106;2023-03-01T03:21:41;7.95;;;4.63;;
28323;SDS011;15583;54.078;12.106;2023-03-01T03:24:07;8.35;;;4.60;;
28323;SDS011;15583;54.078;12.106;2023-03-01T03:26:33;8.40;;;4.88;;
28323;SDS011;15583;54.078;12.106;2023-03-01T03:28:59;6.90;;;4.20;;
28323;SDS011;15583;54.078;12.106;2023-03-01T03:31:26;7.35;;;4.82;;
28323;SDS011;15583;54.078;12.106;2023-03-01T03:33:52;6.53;;;3.72;;
28323;SDS011;15583;54.078;12.106;2023-03-01T03:36:19;7.88;;;4.82;;
28323;SDS011;15583;54.078;12.106;2023-03-01T03:38:46;7.30;;;4.60;;
28323;SDS011;15583;54.078;12.106;2023-03-01T03:41:12;8.25;;;4.45;;
28323;SDS011;15583;54.078;12.106;2023-03-01T03:43:39;6.10;;;4.10;;
28323;SDS011;15583;54.078;12.106;2023-03-01T03:46:05;6.07;;;4.18;;
28323;SDS011;15583;54.078;12.106;2023-03-01T03:48:33;8.18;;;4.18;;
28323;SDS011;15583;54.078;12.106;2023-03-01T03:50:59;6.25;;;4.22;;
28323;SDS011;15583;54.078;12.106;2023-03-01T03:53:26;7.50;;;4.80;;
28323;SDS011;15583;54.078;12.106;2023-03-01T03:55:52;8.02;;;5.00;;
28323;SDS011;15583;54.078;12.106;2023-03-01T03:58:19;7.18;;;4.75;;
28323;SDS011;15583;54.078;12.106;2023-03-01T04:00:46;9.32;;;4.72;;
28323;SDS011;15583;54.078;12.106;2023-03-01T04:03:14;7.40;;;5.30;;
28323;SDS011;15583;54.078;12.106;2023-03-01T04:05:40;8.23;;;4.65;;
28323;SDS011;15583;54.078;12.106;2023-03-01T04:08:07;9.45;;;5.07;;
28323;SDS011;15583;54.078;12.106;2023-03-01T04:10:44;8.48;;;5.07;;
28323;SDS011;15583;54.078;12.106;2023-03-01T04:13:12;7.40;;;4.38;;
28323;SDS011;15583;54.078;12.106;2023-03-01T04:15:38;7.90;;;4.47;;
28323;SDS011;15583;54.078;12.106;2023-03-01T04:18:05;7.68;;;4.95;;
28323;SDS011;15583;54.078;12.106;2023-03-01T04:20:32;8.75;;;4.72;;
28323;SDS011;15583;54.078;12.106;2023-03-01T04:25:37;7.63;;;4.53;;
28323;SDS011;15583;54.078;12.106;2023-03-01T04:28:03;6.13;;;4.38;;
28323;SDS011;15583;54.078;12.106;2023-03-01T04:30:29;6.18;;;4.03;;
28323;SDS011;15583;54.078;12.106;2023-03-01T04:33:00;8.27;;;4.25;;
28323;SDS011;15583;54.078;12.106;2023-03-01T04:35:26;9.00;;;4.45;;
28323;SDS011;15583;54.078;12.106;2023-03-01T04:37:52;6.18;;;4.15;;
28323;SDS011;15583;54.078;12.106;2023-03-01T04:40:18;8.32;;;5.20;;
28323;SDS011;15583;54.078;12.106;2023-03-01T04:42:46;8.75;;;4.78;;
28323;SDS011;15583;54.078;12.106;2023-03-01T04:45:12;9.43;;;5.15;;
28323;SDS011;15583;54.078;12.106;2023-03-01T04:47:42;9.27;;;4.65;;
28323;SDS011;15583;54.078;12.106;2023-03-01T04:50:11;9.13;;;5.20;;
28323;SDS011;15583;54.078;12.106;2023-03-01T04:52:37;9.45;;;5.20;;
28323;SDS011;15583;54.078;12.106;2023-03-01T04:55:04;12.02;;;5.80;;
28323;SDS011;15583;54.078;12.106;2023-03-01T04:57:30;9.38;;;5.65;;
28323;SDS011;15583;54.078;12.106;2023-03-01T04:59:56;11.18;;;6.20;;
28323;SDS011;15583;54.078;12.106;2023-03-01T05:02:22;9.18;;;5.82;;
28323;SDS011;15583;54.078;12.106;2023-03-01T05:04:48;11.40;;;5.93;;
28323;SDS011;15583;54.078;12.106;2023-03-01T05:07:14;8.95;;;5.45;;
28323;SDS011;15583;54.078;12.106;2023-03-01T05:09:44;9.90;;;6.57;;
28323;SDS011;15583;54.078;12.106;2023-03-01T05:12:10;15.35;;;6.25;;
28323;SDS011;15583;54.078;12.106;2023-03-01T05:14:36;9.88;;;5.50;;
28323;SDS011;15583;54.078;12.106;2023-03-01T05:17:03;10.70;;;5.93;;
28323;SDS011;15583;54.078;12.106;2023-03-01T05:19:29;12.25;;;6.15;;
28323;SDS011;15583;54.078;12.106;2023-03-01T05:21:56;10.82;;;6.13;;
28323;SDS011;15583;54.078;12.106;2023-03-01T05:24:31;13.23;;;6.38;;
28323;SDS011;15583;54.078;12.106;2023-03-01T05:26:58;13.43;;;6.57;;
28323;SDS011;15583;54.078;12.106;2023-03-01T05:29:24;10.73;;;5.70;;
28323;SDS011;15583;54.078;12.106;2023-03-01T05:31:54;11.07;;;6.78;;
28323;SDS011;15583;54.078;12.106;2023-03-01T05:34:28;10.43;;;6.13;;
28323;SDS011;15583;54.078;12.106;2023-03-01T05:36:54;10.60;;;6.32;;
28323;SDS011;15583;54.078;12.106;2023-03-01T05:39:21;11.50;;;6.63;;
28323;SDS011;15583;54.078;12.106;2023-03-01T05:41:47;10.77;;;6.55;;
28323;SDS011;15583;54.078;12.106;2023-03-01T05:44:13;10.82;;;6.65;;
28323;SDS011;15583;54.078;12.106;2023-03-01T05:46:40;9.77;;;5.70;;
28323;SDS011;15583;54.078;12.106;2023-03-01T05:49:06;10.25;;;6.88;;
28323;SDS011;15583;54.078;12.106;2023-03-01T05:51:33;10.27;;;6.40;;
28323;SDS011;15583;54.078;12.106;2023-03-01T05:53:59;9.02;;;6.15;;
28323;SDS011;15583;54.078;12.106;2023-03-01T05:56:25;12.07;;;6.90;;
28323;SDS011;15583;54.078;12.106;2023-03-01T05:58:51;13.63;;;7.10;;
28323;SDS011;15583;54.078;12.106;2023-03-01T06:01:17;12.13;;;7.47;;
28323;SDS011;15583;54.078;12.106;2023-03-01T06:03:43;11.32;;;6.45;;
28323;SDS011;15583;54.078;12.106;2023-03-01T06:06:09;12.45;;;6.95;;
28323;SDS011;15583;54.078;12.106;2023-03-01T06:08:35;11.02;;;7.05;;
28323;SDS011;15583;54.078;12.106;2023-03-01T06:11:02;14.32;;;7.97;;
28323;SDS011;15583;54.078;12.106;2023-03-01T06:13:28;12.63;;;7.20;;
28323;SDS011;15583;54.078;12.106;2023-03-01T06:15:54;13.35;;;7.70;;
28323;SDS011;15583;54.078;12.106;2023-03-01T06:18:21;11.18;;;6.32;;
28323;SDS011;15583;54.078;12.106;2023-03-01T06:20:52;13.30;;;7.43;;
28323;SDS011;15583;54.078;12.106;2023-03-01T06:23:18;14.13;;;7.43;;
28323;SDS011;15583;54.078;12.106;2023-03-01T06:25:44;10.95;;;6.40;;
28323;SDS011;15583;54.078;12.106;2023-03-01T06:28:10;11.07;;;6.65;;
28323;SDS011;15583;54.078;12.106;2023-03-01T06:30:36;10.13;;;6.70;;
28323;SDS011;15583;54.078;12.106;2023-03-01T06:33:02;11.40;;;6.88;;
28323;SDS011;15583;54.078;12.106;2023-03-01T06:35:28;9.52;;;5.97;;
28323;SDS011;15583;54.078;12.106;2023-03-01T06:37:54;9.65;;;6.25;;
28323;SDS011;15583;54.078;12.106;2023-03-01T06:40:21;13.18;;;7.07;;
28323;SDS011;15583;54.078;12.106;2023-03-01T06:42:47;12.30;;;7.30;;
28323;SDS011;15583;54.078;12.106;2023-03-01T06:45:14;11.98;;;8.05;;
28323;SDS011;15583;54.078;12.106;2023-03-01T06:47:40;15.48;;;8.85;;
28323;SDS011;15583;54.078;12.106;2023-03-01T06:50:06;15.73;;;8.63;;
28323;SDS011;15583;54.078;12.106;2023-03-01T06:52:32;17.15;;;9.50;;
28323;SDS011;15583;54.078;12.106;2023-03-01T06:54:58;18.65;;;9.82;;
28323;SDS011;15583;54.078;12.106;2023-03-01T06:57:25;25.30;;;12.52;;
28323;SDS011;15583;54.078;12.106;2023-03-01T06:59:51;25.48;;;11.57;;
28323;SDS011;15583;54.078;12.106;2023-03-01T07:02:17;22.63;;;13.07;;
28323;SDS011;15583;54.078;12.106;2023-03-01T07:04:43;22.77;;;12.15;;
28323;SDS011;15583;54.078;12.106;2023-03-01T07:07:09;26.17;;;12.55;;
28323;SDS011;15583;54.078;12.106;2023-03-01T07:09:35;21.17;;;12.38;;
28323;SDS011;15583;54.078;12.106;2023-03-01T07:12:01;26.55;;;13.95;;
28323;SDS011;15583;54.078;12.106;2023-03-01T07:14:27;28.42;;;15.02;;
28323;SDS011;15583;54.078;12.106;2023-03-01T07:16:53;28.83;;;14.93;;
28323;SDS011;15583;54.078;12.106;2023-03-01T07:19:20;25.95;;;13.90;;
28323;SDS011;15583;54.078;12.106;2023-03-01T07:21:46;30.42;;;15.90;;
28323;SDS011;15583;54.078;12.106;2023-03-01T07:24:12;26.40;;;14.00;;
28323;SDS011;15583;54.078;12.106;2023-03-01T07:26:38;27.35;;;14.95;;
28323;SDS011;15583;54.078;12.106;2023-03-01T07:29:05;25.58;;;13.93;;
28323;SDS011;15583;54.078;12.106;2023-03-01T07:31:31;27.83;;;14.70;;
28323;SDS011;15583;54.078;12.106;2023-03-01T07:33:58;25.98;;;14.50;;
28323;SDS011;15583;54.078;12.106;2023-03-01T07:36:23;32.83;;;14.95;;
28323;SDS011;15583;54.078;12.106;2023-03-01T07:38:50;22.58;;;12.57;;
28323;SDS011;15583;54.078;12.106;2023-03-01T07:41:16;26.55;;;14.18;;
28323;SDS011;15583;54.078;12.106;2023-03-01T07:43:42;24.42;;;13.63;;
28323;SDS011;15583;54.078;12.106;2023-03-01T07:46:08;25.52;;;13.40;;
28323;SDS011;15583;54.078;12.106;2023-03-01T07:48:34;25.63;;;13.85;;
28323;SDS011;15583;54.078;12.106;2023-03-01T07:51:00;27.67;;;13.95;;
28323;SDS011;15583;54.078;12.106;2023-03-01T07:53:27;28.65;;;15.52;;
28323;SDS011;15583;54.078;12.106;2023-03-01T07:56:03;27.83;;;14.20;;
28323;SDS011;15583;54.078;12.106;2023-03-01T07:58:29;40.90;;;15.32;;
28323;SDS011;15583;54.078;12.106;2023-03-01T08:01:00;63.05;;;14.68;;
28323;SDS011;15583;54.078;12.106;2023-03-01T08:03:26;47.58;;;14.07;;
28323;SDS011;15583;54.078;12.106;2023-03-01T08:05:52;62.45;;;13.57;;
28323;SDS011;15583;54.078;12.106;2023-03-01T08:08:18;45.17;;;15.45;;
28323;SDS011;15583;54.078;12.106;2023-03-01T08:10:44;49.28;;;14.35;;
28323;SDS011;15583;54.078;12.106;2023-03-01T08:13:10;50.78;;;15.77;;
28323;SDS011;15583;54.078;12.106;2023-03-01T08:15:36;59.05;;;15.70;;
28323;SDS011;15583;54.078;12.106;2023-03-01T08:18:02;36.55;;;15.07;;
28323;SDS011;15583;54.078;12.106;2023-03-01T08:20:28;50.03;;;16.33;;
28323;SDS011;15583;54.078;12.106;2023-03-01T08:22:54;37.13;;;14.40;;
28323;SDS011;15583;54.078;12.106;2023-03-01T08:25:21;44.63;;;14.23;;
28323;SDS011;15583;54.078;12.106;2023-03-01T08:27:47;39.53;;;14.82;;
28323;SDS011;15583;54.078;12.106;2023-03-01T08:30:13;57.95;;;14.98;;
28323;SDS011;15583;54.078;12.106;2023-03-01T08:32:39;37.72;;;14.38;;
28323;SDS011;15583;54.078;12.106;2023-03-01T08:35:05;40.70;;;13.98;;
28323;SDS011;15583;54.078;12.106;2023-03-01T08:37:31;35.63;;;14.15;;
28323;SDS011;15583;54.078;12.106;2023-03-01T08:39:57;32.90;;;14.15;;
28323;SDS011;15583;54.078;12.106;2023-03-01T08:42:23;35.65;;;14.00;;
28323;SDS011;15583;54.078;12.106;2023-03-01T08:44:49;37.20;;;13.98;;
28323;SDS011;15583;54.078;12.106;2023-03-01T08:47:15;34.10;;;13.93;;
28323;SDS011;15583;54.078;12.106;2023-03-01T08:49:41;27.80;;;14.15;;
28323;SDS011;15583;54.078;12.106;2023-03-01T08:52:07;42.78;;;14.23;;
28323;SDS011;15583;54.078;12.106;2023-03-01T08:54:33;32.88;;;12.88;;
28323;SDS011;15583;54.078;12.106;2023-03-01T08:57:01;27.88;;;13.10;;
28323;SDS011;15583;54.078;12.106;2023-03-01T08:59:27;44.25;;;14.25;;
28323;SDS011;15583;54.078;12.106;2023-03-01T09:01:54;35.72;;;13.60;;
28323;SDS011;15583;54.078;12.106;2023-03-01T09:04:20;33.47;;;14.20;;
28323;SDS011;15583;54.078;12.106;2023-03-01T09:06:46;42.70;;;14.65;;
28323;SDS011;15583;54.078;12.106;2023-03-01T09:09:16;68.35;;;15.20;;
28323;SDS011;15583;54.078;12.106;2023-03-01T09:11:44;45.05;;;14.07;;
28323;SDS011;15583;54.078;12.106;2023-03-01T09:14:15;30.05;;;13.75;;
28323;SDS011;15583;54.078;12.106;2023-03-01T09:16:41;43.88;;;14.95;;
28323;SDS011;15583;54.078;12.106;2023-03-01T09:19:07;55.90;;;14.57;;
28323;SDS011;15583;54.078;12.106;2023-03-01T09:21:33;30.42;;;14.48;;
28323;SDS011;15583;54.078;12.106;2023-03-01T09:23:59;48.17;;;14.82;;
28323;SDS011;15583;54.078;12.106;2023-03-01T09:26:25;47.33;;;13.98;;
28323;SDS011;15583;54.078;12.106;2023-03-01T09:28:51;60.78;;;16.27;;
28323;SDS011;15583;54.078;12.106;2023-03-01T09:31:19;39.38;;;15.15;;
28323;SDS011;15583;54.078;12.106;2023-03-01T09:33:46;34.20;;;15.10;;
28323;SDS011;15583;54.078;12.106;2023-03-01T09:36:13;28.90;;;14.98;;
28323;SDS011;15583;54.078;12.106;2023-03-01T09:38:39;29.60;;;16.17;;
28323;SDS011;15583;54.078;12.106;2023-03-01T09:41:09;29.60;;;14.93;;
28323;SDS011;15583;54.078;12.106;2023-03-01T09:43:55;28.88;;;14.05;;
28323;SDS011;15583;54.078;12.106;2023-03-01T09:46:24;26.60;;;14.20;;
28323;SDS011;15583;54.078;12.106;2023-03-01T09:48:57;43.10;;;14.73;;
28323;SDS011;15583;54.078;12.106;2023-03-01T09:51:29;38.67;;;14.38;;
28323;SDS011;15583;54.078;12.106;2023-03-01T09:53:56;35.03;;;15.00;;
28323;SDS011;15583;54.078;12.106;2023-03-01T09:56:46;37.95;;;15.48;;
28323;SDS011;15583;54.078;12.106;2023-03-01T10:02:00;34.97;;;15.52;;
28323;SDS011;15583;54.078;12.106;2023-03-01T10:04:44;29.83;;;14.95;;
28323;SDS011;15583;54.078;12.106;2023-03-01T10:09:40;31.80;;;15.70;;
28323;SDS011;15583;54.078;12.106;2023-03-01T10:12:11;41.00;;;15.70;;
28323;SDS011;15583;54.078;12.106;2023-03-01T10:15:20;40.55;;;15.13;;
28323;SDS011;15583;54.078;12.106;2023-03-01T10:20:13;30.42;;;14.68;;
28323;SDS011;15583;54.078;12.106;2023-03-01T10:22:40;35.13;;;16.05;;
28323;SDS011;15583;54.078;12.106;2023-03-01T10:25:06;28.73;;;15.55;;
28323;SDS011;15583;54.078;12.106;2023-03-01T10:30:00;31.63;;;15.93;;
28323;SDS011;15583;54.078;12.106;2023-03-01T10:32:31;34.45;;;15.85;;
28323;SDS011;15583;54.078;12.106;2023-03-01T10:34:57;28.02;;;14.98;;
28323;SDS011;15583;54.078;12.106;2023-03-01T10:37:23;29.63;;;15.80;;
28323;SDS011;15583;54.078;12.106;2023-03-01T10:40:02;45.30;;;18.08;;
28323;SDS011;15583;54.078;12.106;2023-03-01T10:42:36;31.65;;;16.13;;
28323;SDS011;15583;54.078;12.106;2023-03-01T10:47:49;30.90;;;16.25;;
28323;SDS011;15583;54.078;12.106;2023-03-01T10:50:28;30.23;;;17.38;;
28323;SDS011;15583;54.078;12.106;2023-03-01T10:53:01;32.40;;;17.35;;
28323;SDS011;15583;54.078;12.106;2023-03-01T10:55:30;35.67;;;17.92;;
28323;SDS011;15583;54.078;12.106;2023-03-01T10:58:16;33.90;;;16.90;;
28323;SDS011;15583;54.078;12.106;2023-03-01T11:03:14;27.80;;;16.23;;
28323;SDS011;15583;54.078;12.106;2023-03-01T11:05:50;31.73;;;16.88;;
28323;SDS011;15583;54.078;12.106;2023-03-01T11:08:25;31.77;;;16.77;;
28323;SDS011;15583;54.078;12.106;2023-03-01T11:11:03;30.15;;;16.27;;
28323;SDS011;15583;54.078;12.106;2023-03-01T11:13:29;25.95;;;14.88;;
28323;SDS011;15583;54.078;12.106;2023-03-01T11:15:59;30.25;;;15.95;;
28323;SDS011;15583;54.078;12.106;2023-03-01T11:18:25;27.15;;;14.65;;
28323;SDS011;15583;54.078;12.106;2023-03-01T11:20:52;29.70;;;15.98;;
28323;SDS011;15583;54.078;12.106;2023-03-01T11:23:18;28.23;;;15.73;;
28323;SDS011;15583;54.078;12.106;2023-03-01T11:25:47;27.15;;;15.15;;
28323;SDS011;15583;54.078;12.106;2023-03-01T11:28:16;29.02;;;15.77;;
28323;SDS011;15583;54.078;12.106;2023-03-01T11:31:02;28.63;;;16.10;;
28323;SDS011;15583;54.078;12.106;2023-03-01T11:33:41;30.60;;;15.98;;
28323;SDS011;15583;54.078;12.106;2023-03-01T11:38:41;28.50;;;16.00;;
28323;SDS011;15583;54.078;12.106;2023-03-01T11:41:14;29.25;;;16.95;;
28323;SDS011;15583;54.078;12.106;2023-03-01T11:43:47;30.88;;;16.50;;
28323;SDS011;15583;54.078;12.106;2023-03-01T11:54:09;29.67;;;16.55;;
28323;SDS011;15583;54.078;12.106;2023-03-01T11:56:47;34.15;;;16.30;;
28323;SDS011;15583;54.078;12.106;2023-03-01T12:07:01;35.47;;;16.42;;
28323;SDS011;15583;54.078;12.106;2023-03-01T12:09:44;32.95;;;16.52;;
28323;SDS011;15583;54.078;12.106;2023-03-01T12:14:51;33.60;;;17.70;;
28323;SDS011;15583;54.078;12.106;2023-03-01T12:20:00;31.08;;;15.70;;
28323;SDS011;15583;54.078;12.106;2023-03-01T12:22:29;31.33;;;16.05;;
28323;SDS011;15583;54.078;12.106;2023-03-01T12:25:02;29.95;;;15.65;;
28323;SDS011;15583;54.078;12.106;2023-03-01T12:27:56;29.40;;;15.70;;
28323;SDS011;15583;54.078;12.106;2023-03-01T12:30:29;36.65;;;16.30;;
28323;SDS011;15583;54.078;12.106;2023-03-01T12:33:12;33.63;;;16.73;;
28323;SDS011;15583;54.078;12.106;2023-03-01T12:38:42;27.48;;;14.63;;
28323;SDS011;15583;54.078;12.106;2023-03-01T12:46:28;26.25;;;14.85;;
28323;SDS011;15583;54.078;12.106;2023-03-01T12:51:31;27.63;;;14.20;;
28323;SDS011;15583;54.078;12.106;2023-03-01T12:53:58;28.67;;;14.75;;
28323;SDS011;15583;54.078;12.106;2023-03-01T12:56:27;27.40;;;14.07;;
28323;SDS011;15583;54.078;12.106;2023-03-01T13:11:31;25.40;;;13.98;;
28323;SDS011;15583;54.078;12.106;2023-03-01T13:14:44;26.35;;;14.20;;
28323;SDS011;15583;54.078;12.106;2023-03-01T13:16:46;25.10;;;13.93;;
28323;SDS011;15583;54.078;12.106;2023-03-01T13:19:18;27.20;;;14.48;;
28323;SDS011;15583;54.078;12.106;2023-03-01T13:21:45;27.23;;;14.05;;
28323;SDS011;15583;54.078;12.106;2023-03-01T13:24:45;31.27;;;14.88;;
28323;SDS011;15583;54.078;12.106;2023-03-01T13:29:45;31.75;;;15.90;;
28323;SDS011;15583;54.078;12.106;2023-03-01T13:32:24;28.05;;;14.90;;
28323;SDS011;15583;54.078;12.106;2023-03-01T13:35:03;28.67;;;16.13;;
28323;SDS011;15583;54.078;12.106;2023-03-01T13:37:36;31.40;;;16.50;;
28323;SDS011;15583;54.078;12.106;2023-03-01T13:40:56;32.28;;;17.27;;
28323;SDS011;15583;54.078;12.106;2023-03-01T13:42:52;31.48;;;16.02;;
28323;SDS011;15583;54.078;12.106;2023-03-01T13:45:23;28.45;;;16.88;;
28323;SDS011;15583;54.078;12.106;2023-03-01T13:47:53;33.17;;;16.45;;
28323;SDS011;15583;54.078;12.106;2023-03-01T13:50:21;29.88;;;15.60;;
28323;SDS011;15583;54.078;12.106;2023-03-01T13:55:46;28.80;;;15.25;;
28323;SDS011;15583;54.078;12.106;2023-03-01T13:58:24;30.33;;;15.60;;
28323;SDS011;15583;54.078;12.106;2023-03-01T14:01:06;35.10;;;15.57;;
28323;SDS011;15583;54.078;12.106;2023-03-01T14:03:39;34.72;;;15.77;;
28323;SDS011;15583;54.078;12.106;2023-03-01T14:06:12;31.10;;;16.40;;
28323;SDS011;15583;54.078;12.106;2023-03-01T14:08:40;36.55;;;16.85;;
28323;SDS011;15583;54.078;12.106;2023-03-01T14:16:47;36.08;;;18.10;;
28323;SDS011;15583;54.078;12.106;2023-03-01T14:19:19;40.63;;;17.92;;
28323;SDS011;15583;54.078;12.106;2023-03-01T14:21:58;41.63;;;18.38;;
28323;SDS011;15583;54.078;12.106;2023-03-01T14:24:25;30.00;;;15.02;;
28323;SDS011;15583;54.078;12.106;2023-03-01T14:26:52;35.85;;;16.50;;
28323;SDS011;15583;54.078;12.106;2023-03-01T14:29:25;35.40;;;16.35;;
28323;SDS011;15583;54.078;12.106;2023-03-01T14:31:51;32.40;;;15.63;;
28323;SDS011;15583;54.078;12.106;2023-03-01T14:34:21;30.42;;;15.35;;
28323;SDS011;15583;54.078;12.106;2023-03-01T14:36:47;29.58;;;14.85;;
28323;SDS011;15583;54.078;12.106;2023-03-01T14:39:17;28.30;;;14.88;;
28323;SDS011;15583;54.078;12.106;2023-03-01T14:41:43;33.85;;;13.15;;
28323;SDS011;15583;54.078;12.106;2023-03-01T14:44:12;28.08;;;13.75;;
28323;SDS011;15583;54.078;12.106;2023-03-01T14:46:40;31.33;;;13.40;;
28323;SDS011;15583;54.078;12.106;2023-03-01T14:51:37;34.53;;;11.43;;
28323;SDS011;15583;54.078;12.106;2023-03-01T14:54:03;35.35;;;13.10;;
28323;SDS011;15583;54.078;12.106;2023-03-01T14:56:42;29.63;;;13.05;;
28323;SDS011;15583;54.078;12.106;2023-03-01T14:59:08;25.85;;;11.65;;
28323;SDS011;15583;54.078;12.106;2023-03-01T15:01:34;28.38;;;11.82;;
28323;SDS011;15583;54.078;12.106;2023-03-01T15:04:01;25.00;;;11.57;;
28323;SDS011;15583;54.078;12.106;2023-03-01T15:06:27;30.90;;;11.07;;
28323;SDS011;15583;54.078;12.106;2023-03-01T15:08:54;24.95;;;10.80;;
28323;SDS011;15583;54.078;12.106;2023-03-01T15:11:24;29.95;;;10.45;;
28323;SDS011;15583;54.078;12.106;2023-03-01T15:13:50;25.55;;;10.60;;
28323;SDS011;15583;54.078;12.106;2023-03-01T15:16:18;36.47;;;11.27;;
28323;SDS011;15583;54.078;12.106;2023-03-01T15:18:49;30.23;;;11.32;;
28323;SDS011;15583;54.078;12.106;2023-03-01T15:21:17;37.45;;;11.25;;
28323;SDS011;15583;54.078;12.106;2023-03-01T15:23:47;27.35;;;11.52;;
28323;SDS011;15583;54.078;12.106;2023-03-01T15:28:49;24.40;;;10.90;;
28323;SDS011;15583;54.078;12.106;2023-03-01T15:31:19;23.25;;;11.05;;
28323;SDS011;15583;54.078;12.106;2023-03-01T15:33:47;31.10;;;11.63;;
28323;SDS011;15583;54.078;12.106;2023-03-01T15:38:58;28.48;;;11.23;;
28323;SDS011;15583;54.078;12.106;2023-03-01T15:41:32;34.58;;;11.63;;
28323;SDS011;15583;54.078;12.106;2023-03-01T15:43:58;25.65;;;10.90;;
28323;SDS011;15583;54.078;12.106;2023-03-01T15:48:55;30.90;;;11.45;;
28323;SDS011;15583;54.078;12.106;2023-03-01T15:51:31;27.63;;;12.65;;
28323;SDS011;15583;54.078;12.106;2023-03-01T15:53:59;38.95;;;11.65;;
28323;SDS011;15583;54.078;12.106;2023-03-01T15:56:26;28.50;;;11.15;;
28323;SDS011;15583;54.078;12.106;2023-03-01T15:58:52;31.42;;;11.15;;